Airfield :
LOGIN :

Register | Disclaimer

   EN    FR    IT 

 










Legend :    VFR   Marginal VFR   IFR   Intensive IFR   Very Intensive IFR
Visi :
Ceiling :
>= 8 km
>= 3000ft
5 to 8 km
1000 to 3000 ft
1500m to 5 km
500 to 1000 ft
800 to 1500m
200 to 500 ft
< 800m
< 200 ft
Symbols :   Thunderstorms  Fog  Heavy snow  Heavy precipitations  Wind > 20 kt
SIGMETs :     Misc.  Thunderstorms  Icing  Turbulence  Mountain Waves  Volcanic Ashes







- Airport Elevation : 7 ft
- IATA code : VCE


LIPZ - Marco Polo Int. Venezia

CURRENT METAR :
  • 241520Z 14008KT CAVOK 17/09 Q1022 NOSIG

EXPIRED METARs :
  • 241450Z 14007KT CAVOK 17/10 Q1022 NOSIG
  • 241420Z 15008KT CAVOK 17/09 Q1023 NOSIG
  • 241350Z 14008KT CAVOK 17/09 Q1023 NOSIG
  • 241320Z 14010KT CAVOK 17/09 Q1023 NOSIG
  • 241250Z 14009KT CAVOK 18/10 Q1023 NOSIG

TAF TAF LIPZ
Valid from the 24 at 12:00 until the 25 at 18:00 UTC


241100Z 2412/2518 15010KT CAVOK
BECMG 2416/2419 VRB05KT
TEMPO 2500/2503 1200 BR
BECMG 2502/2505 05012KT
No reported NOTAMs for that airfield.



MET'MAP, your aeronautical weather chart ! - Copyright ORBIFLY December 2007 - Disclaimer

ORBIFLY MET'MAP TEAM :

Programming & Development : Alexandra Zaïnal
Concept & Development : Baudouin d'Aumeries
Co-Development & Prog : Marc-Olivier Méhu
Technical & hardware support : Manuel Goepfert

Contact : metmap@orbifly.com




SOURCES & CREDITS :

   NOAA